Terminal Aerodrome Forecast
Issued by NWS

Home | Current Version | Previous Version | Text Only | Print | Product List | Glossary On
Versions: 1 2 3 4 5 6 7 8 9 10 11 12 13 14 15 16
000
FTUS44 KCRP 220200 AAA
TAFALI
TAF AMD
KALI 220202Z 2202/2224 14012KT P6SM SCT025 BKN060
      TEMPO 2205/2209 BKN025
     FM220900 14010KT P6SM VCSH BKN015
     FM221400 16015G22KT P6SM -SHRA SCT026 BKN035 PROB30 2218/2224
      VRB25G35KT 4SM TSRA SCT030CB BKN040=

USA.gov is the U.S. government's official web portal to all federal, state and local government web resources and services.